createdAt,value
2023-05-03T03:01:41.555Z,5.60
2023-05-03T03:04:09.946Z,5.90
2023-05-03T03:06:37.181Z,5.63
2023-05-03T03:09:04.901Z,5.10
2023-05-03T03:11:32.186Z,6.00
2023-05-03T03:13:59.309Z,6.83
2023-05-03T03:16:26.606Z,5.60
2023-05-03T03:18:53.767Z,7.43
2023-05-03T03:21:21.014Z,7.30
2023-05-03T03:23:48.305Z,7.37
2023-05-03T03:26:15.454Z,7.27
2023-05-03T03:28:42.581Z,6.40
2023-05-03T03:31:09.772Z,7.00
2023-05-03T03:33:37.046Z,5.37
2023-05-03T03:36:06.662Z,6.30
2023-05-03T03:38:33.911Z,5.67
2023-05-03T03:41:01.190Z,5.13
2023-05-03T03:43:28.462Z,6.90
2023-05-03T03:45:55.768Z,6.40
2023-05-03T03:48:23.044Z,5.97
2023-05-03T03:50:50.601Z,5.57
2023-05-03T03:53:17.759Z,5.40
2023-05-03T03:55:44.939Z,7.03
2023-05-03T03:58:12.139Z,6.23
2023-05-03T04:00:40.038Z,7.00
2023-05-03T04:03:07.991Z,7.07
2023-05-03T04:05:35.689Z,6.33
2023-05-03T04:08:02.902Z,6.03
2023-05-03T04:10:30.054Z,7.33
2023-05-03T04:12:57.232Z,7.43
2023-05-03T04:15:24.474Z,6.40
2023-05-03T04:17:51.710Z,8.50
2023-05-03T04:20:19.195Z,6.97
2023-05-03T04:22:46.394Z,6.77
2023-05-03T04:25:14.172Z,8.50
2023-05-03T04:27:41.429Z,7.00
2023-05-03T04:30:09.709Z,5.23
2023-05-03T04:32:37.572Z,6.63
2023-05-03T04:35:09.479Z,6.87
2023-05-03T04:37:43.408Z,6.60
2023-05-03T04:40:12.395Z,8.13
2023-05-03T04:42:39.704Z,7.00
2023-05-03T04:45:09.622Z,6.87
2023-05-03T04:47:37.219Z,6.80
2023-05-03T04:50:05.098Z,6.60
2023-05-03T04:52:32.839Z,6.50
2023-05-03T04:54:59.979Z,6.43
2023-05-03T04:57:27.211Z,6.00
2023-05-03T04:59:54.938Z,6.00
2023-05-03T05:02:22.978Z,5.83
2023-05-03T05:04:50.166Z,5.70
2023-05-03T05:07:17.965Z,5.50
2023-05-03T05:09:45.611Z,6.53
2023-05-03T05:12:12.918Z,5.40
2023-05-03T05:14:40.116Z,6.93
2023-05-03T05:17:07.586Z,6.03
2023-05-03T05:19:35.750Z,7.10
2023-05-03T05:22:02.969Z,6.57
2023-05-03T05:24:30.159Z,8.40
2023-05-03T05:26:57.448Z,6.87
2023-05-03T05:29:24.669Z,6.20
2023-05-03T05:31:53.138Z,6.87
2023-05-03T05:34:20.448Z,6.67
2023-05-03T05:36:47.736Z,6.10
2023-05-03T05:39:14.932Z,6.37
2023-05-03T05:41:42.235Z,6.90
2023-05-03T05:44:09.517Z,8.07
2023-05-03T05:46:36.666Z,7.17
2023-05-03T05:49:04.046Z,5.93
2023-05-03T05:51:31.788Z,7.38
2023-05-03T05:53:58.979Z,5.93
2023-05-03T05:56:26.528Z,5.80
2023-05-03T05:58:53.753Z,6.73
2023-05-03T06:01:20.928Z,6.38
2023-05-03T06:03:48.174Z,7.72
2023-05-03T06:06:15.496Z,7.65
2023-05-03T06:08:42.619Z,8.15
2023-05-03T06:11:09.777Z,7.35
2023-05-03T06:13:38.728Z,6.45
2023-05-03T06:16:06.263Z,6.70
2023-05-03T06:18:33.441Z,6.95
2023-05-03T06:21:00.855Z,6.97
2023-05-03T06:23:28.158Z,7.05
2023-05-03T06:25:55.454Z,7.82
2023-05-03T06:28:22.686Z,5.57
2023-05-03T06:30:50.661Z,5.72
2023-05-03T06:33:18.022Z,8.05
2023-05-03T06:35:47.162Z,8.07
2023-05-03T06:38:14.331Z,6.40
2023-05-03T06:40:41.603Z,8.60
2023-05-03T06:43:08.777Z,7.05
2023-05-03T06:45:35.951Z,7.43
2023-05-03T06:48:03.469Z,6.65
2023-05-03T06:50:30.848Z,7.28
2023-05-03T06:52:58.029Z,6.22
2023-05-03T06:55:25.444Z,6.30
2023-05-03T06:57:53.031Z,5.90
2023-05-03T07:00:23.236Z,6.20
2023-05-03T07:02:50.456Z,5.00
2023-05-03T07:05:17.817Z,5.20
2023-05-03T07:07:45.067Z,5.93
2023-05-03T07:10:12.231Z,5.25
2023-05-03T07:12:39.446Z,4.88
2023-05-03T07:15:07.100Z,5.22
2023-05-03T07:17:34.417Z,5.10
2023-05-03T07:20:01.963Z,4.72
2023-05-03T07:22:29.642Z,4.90
2023-05-03T07:24:59.582Z,5.07
2023-05-03T07:27:27.133Z,4.20
2023-05-03T07:29:54.785Z,4.10
2023-05-03T07:32:22.368Z,4.45
2023-05-03T07:34:49.913Z,4.15
2023-05-03T07:37:17.454Z,3.90
2023-05-03T07:39:45.585Z,5.10
2023-05-03T07:42:12.764Z,3.85
2023-05-03T07:44:40.013Z,5.20
2023-05-03T07:47:07.199Z,4.85
2023-05-03T07:49:36.318Z,4.85
2023-05-03T07:52:03.584Z,4.70
2023-05-03T07:54:31.245Z,6.10
2023-05-03T07:56:58.492Z,5.10
2023-05-03T07:59:25.715Z,4.88
2023-05-03T08:01:52.961Z,5.60
2023-05-03T08:04:20.426Z,5.10
2023-05-03T08:06:47.975Z,5.65
2023-05-03T08:09:15.770Z,6.45
2023-05-03T08:11:44.315Z,5.90
2023-05-03T08:14:12.944Z,7.30
2023-05-03T08:16:40.416Z,7.07
2023-05-03T08:19:08.196Z,8.02
2023-05-03T08:21:35.575Z,8.27
2023-05-03T08:26:33.631Z,7.70
2023-05-03T08:29:03.249Z,7.82
2023-05-03T08:31:31.454Z,7.32
2023-05-03T08:33:58.724Z,6.95
2023-05-03T08:36:25.918Z,7.53
2023-05-03T08:38:53.055Z,7.68
2023-05-03T08:41:31.067Z,7.85
2023-05-03T08:43:59.773Z,8.05
2023-05-03T08:46:28.644Z,9.07
2023-05-03T08:48:56.300Z,7.75
2023-05-03T08:51:25.131Z,7.65
2023-05-03T08:53:52.798Z,6.88
2023-05-03T08:56:41.576Z,6.80
2023-05-03T08:59:11.689Z,6.85
2023-05-03T09:01:42.312Z,7.35
2023-05-03T09:04:11.689Z,7.13
2023-05-03T09:06:39.384Z,6.63
2023-05-03T09:09:08.461Z,7.55
2023-05-03T09:11:38.395Z,7.05
2023-05-03T09:14:17.225Z,7.00
2023-05-03T09:16:46.648Z,7.47
2023-05-03T09:19:16.083Z,6.18
2023-05-03T09:21:45.078Z,7.03
2023-05-03T09:24:22.344Z,7.00
2023-05-03T09:26:51.957Z,6.80
2023-05-03T09:29:31.056Z,6.85
2023-05-03T09:32:05.355Z,6.80
2023-05-03T09:34:33.416Z,7.00
2023-05-03T09:37:00.942Z,6.20
2023-05-03T09:39:28.114Z,6.35
2023-05-03T09:41:55.888Z,6.40
2023-05-03T09:44:42.027Z,6.05
2023-05-03T09:47:10.518Z,6.57
2023-05-03T09:49:38.821Z,6.45
2023-05-03T09:52:07.805Z,5.75
2023-05-03T09:54:35.461Z,6.47
2023-05-03T09:57:04.999Z,6.18
2023-05-03T09:59:33.642Z,5.28
2023-05-03T10:02:03.390Z,6.63
2023-05-03T10:04:39.570Z,6.85
2023-05-03T10:07:12.477Z,5.97
2023-05-03T10:09:43.082Z,6.63
2023-05-03T10:12:12.818Z,6.03
2023-05-03T10:14:42.620Z,6.72
2023-05-03T10:17:46.992Z,6.65
2023-05-03T10:20:22.902Z,7.13
2023-05-03T10:23:05.531Z,6.85
2023-05-03T10:25:34.711Z,6.32
2023-05-03T10:28:03.575Z,6.60
2023-05-03T10:30:32.546Z,7.82
2023-05-03T10:33:20.314Z,6.90
2023-05-03T10:35:54.417Z,6.65
2023-05-03T10:38:24.055Z,6.05
2023-05-03T10:40:52.184Z,6.20
2023-05-03T10:43:31.604Z,6.45
2023-05-03T10:46:05.980Z,6.53
2023-05-03T10:48:34.618Z,6.78
2023-05-03T10:51:30.634Z,6.43
2023-05-03T10:53:57.831Z,6.68
2023-05-03T10:56:24.985Z,5.85
2023-05-03T10:58:56.080Z,6.18
2023-05-03T11:01:24.774Z,5.45
2023-05-03T11:04:08.327Z,5.15
2023-05-03T11:06:37.436Z,5.43
2023-05-03T11:09:09.789Z,5.78
2023-05-03T11:11:43.390Z,5.55
2023-05-03T11:14:12.698Z,5.43
2023-05-03T11:16:47.769Z,6.40
2023-05-03T11:19:15.761Z,5.47
2023-05-03T11:21:43.581Z,5.70
2023-05-03T11:24:10.819Z,5.95
2023-05-03T11:26:38.838Z,5.60
2023-05-03T11:29:06.151Z,5.75
2023-05-03T11:31:35.576Z,6.07
2023-05-03T11:34:02.985Z,6.05
2023-05-03T11:36:31.137Z,6.07
2023-05-03T11:38:58.412Z,12.38
2023-05-03T11:41:26.547Z,7.35
2023-05-03T11:44:03.771Z,6.10
2023-05-03T11:46:38.105Z,6.00
2023-05-03T11:49:05.685Z,6.47
2023-05-03T11:51:33.013Z,6.45
2023-05-03T11:54:12.950Z,5.72
2023-05-03T11:56:54.919Z,6.30
2023-05-03T11:59:44.084Z,7.40
2023-05-03T12:02:15.551Z,6.03
2023-05-03T12:04:45.676Z,6.45
2023-05-03T12:07:16.941Z,6.85
2023-05-03T12:09:53.173Z,6.13
2023-05-03T12:12:31.465Z,5.90
2023-05-03T12:15:03.635Z,6.45
2023-05-03T12:17:37.136Z,6.93
2023-05-03T12:22:58.120Z,7.32
2023-05-03T12:25:28.069Z,8.20
2023-05-03T12:28:17.690Z,7.35
2023-05-03T12:30:46.917Z,10.23
2023-05-03T12:33:16.567Z,11.95
2023-05-03T12:35:47.716Z,11.15
2023-05-03T12:38:17.466Z,14.00
2023-05-03T12:40:45.821Z,14.55
2023-05-03T12:43:13.341Z,13.68
2023-05-03T12:45:41.272Z,14.18
2023-05-03T12:48:09.308Z,14.35
2023-05-03T12:50:38.647Z,18.63
2023-05-03T12:53:09.424Z,16.23
2023-05-03T12:55:43.145Z,16.02
2023-05-03T13:00:52.393Z,16.65
2023-05-03T13:03:33.316Z,15.00
2023-05-03T13:06:12.393Z,13.90
2023-05-03T13:08:49.504Z,14.43
2023-05-03T13:11:19.806Z,15.32
2023-05-03T13:13:47.416Z,14.90
2023-05-03T13:16:14.824Z,14.85
2023-05-03T13:18:43.056Z,13.50
2023-05-03T13:21:11.384Z,11.13
2023-05-03T13:23:38.639Z,10.18
2023-05-03T13:26:07.082Z,12.50
2023-05-03T13:28:34.363Z,11.93
2023-05-03T13:31:01.582Z,12.82
2023-05-03T13:33:29.492Z,12.20
2023-05-03T13:35:58.034Z,12.68
2023-05-03T13:38:25.585Z,13.40
2023-05-03T13:40:53.273Z,13.15
2023-05-03T13:43:20.726Z,12.15
2023-05-03T13:45:48.843Z,13.23
2023-05-03T13:48:18.251Z,14.18
2023-05-03T13:50:46.459Z,14.75
2023-05-03T13:53:13.661Z,13.32
2023-05-03T13:55:41.400Z,10.75
2023-05-03T13:58:08.629Z,11.98
2023-05-03T14:00:36.149Z,15.65
2023-05-03T14:03:03.736Z,13.20
2023-05-03T14:05:30.875Z,12.90
2023-05-03T14:07:58.393Z,11.68
2023-05-03T14:10:25.724Z,10.43
2023-05-03T14:12:53.325Z,10.30
2023-05-03T14:15:20.727Z,8.63
2023-05-03T14:17:48.054Z,10.52
2023-05-03T14:20:18.079Z,10.85
2023-05-03T14:22:45.848Z,9.65
2023-05-03T14:25:13.286Z,9.02
2023-05-03T14:27:40.560Z,9.27
2023-05-03T14:30:10.433Z,9.63
2023-05-03T14:32:37.681Z,9.57
2023-05-03T14:35:05.122Z,9.70
2023-05-03T14:37:33.329Z,8.95
2023-05-03T14:40:00.668Z,9.20
2023-05-03T14:42:30.824Z,8.88
2023-05-03T14:44:58.954Z,9.35
2023-05-03T14:47:26.336Z,9.30
2023-05-03T14:49:53.569Z,8.98
2023-05-03T14:52:21.007Z,8.30
2023-05-03T14:54:48.174Z,9.25
2023-05-03T14:57:15.442Z,7.60
2023-05-03T14:59:42.635Z,8.68
2023-05-03T15:02:10.219Z,8.57
2023-05-03T15:04:37.895Z,8.98
2023-05-03T15:07:06.496Z,8.73
2023-05-03T15:09:33.806Z,8.57
2023-05-03T15:12:02.003Z,8.43
2023-05-03T15:14:29.912Z,9.80
2023-05-03T15:16:57.181Z,8.32
2023-05-03T15:19:24.418Z,8.45
2023-05-03T15:21:52.017Z,7.65
2023-05-03T15:24:19.872Z,8.85
2023-05-03T15:26:47.164Z,9.15
2023-05-03T15:29:15.611Z,8.63
2023-05-03T15:31:43.711Z,8.55
2023-05-03T15:34:12.270Z,9.70
2023-05-03T15:36:40.570Z,9.18
2023-05-03T15:39:09.481Z,9.20
2023-05-03T15:41:36.772Z,9.00
2023-05-03T15:44:05.493Z,9.65
2023-05-03T15:46:34.341Z,9.45
2023-05-03T15:49:01.831Z,8.43
2023-05-03T15:51:29.366Z,8.60
2023-05-03T15:53:56.629Z,9.50
2023-05-03T15:56:24.010Z,8.05
2023-05-03T15:58:51.299Z,9.02
2023-05-03T16:01:18.768Z,7.80
2023-05-03T16:03:46.281Z,8.60
2023-05-03T16:06:16.751Z,9.30
2023-05-03T16:08:44.439Z,8.85
2023-05-03T16:11:12.797Z,10.52
2023-05-03T16:13:40.006Z,9.50
2023-05-03T16:16:07.440Z,8.35
2023-05-03T16:18:34.870Z,7.45
2023-05-03T16:21:02.708Z,8.45
2023-05-03T16:23:30.066Z,8.40
2023-05-03T16:25:57.453Z,9.32
2023-05-03T16:28:24.724Z,8.60
2023-05-03T16:30:52.060Z,8.60
2023-05-03T16:33:19.421Z,9.27
2023-05-03T16:35:46.639Z,8.50
2023-05-03T16:38:13.911Z,8.45
2023-05-03T16:40:42.387Z,10.82
2023-05-03T16:43:10.380Z,8.10
2023-05-03T16:45:37.842Z,8.30
2023-05-03T16:48:07.501Z,8.50
2023-05-03T16:50:37.601Z,10.10
2023-05-03T16:53:04.844Z,9.15
2023-05-03T16:55:32.050Z,7.95
2023-05-03T16:58:00.107Z,8.38
2023-05-03T17:00:30.247Z,8.48
2023-05-03T17:02:57.574Z,8.88
2023-05-03T17:05:26.161Z,8.48
2023-05-03T17:07:53.371Z,8.57
2023-05-03T17:10:20.636Z,9.95
2023-05-03T17:12:48.175Z,8.63
2023-05-03T17:15:16.793Z,8.60
2023-05-03T17:17:44.118Z,7.97
2023-05-03T17:20:12.908Z,8.00
2023-05-03T17:22:40.114Z,7.35
2023-05-03T17:25:07.929Z,8.38
2023-05-03T17:27:36.332Z,8.50
2023-05-03T17:30:05.659Z,8.75
2023-05-03T17:32:33.264Z,8.30
2023-05-03T17:35:00.624Z,8.57
2023-05-03T17:37:28.594Z,9.30
2023-05-03T17:39:55.932Z,9.65
2023-05-03T17:42:23.095Z,9.50
2023-05-03T17:44:54.911Z,9.90
2023-05-03T17:47:23.005Z,8.85
2023-05-03T17:49:50.612Z,10.60
2023-05-03T17:52:17.813Z,10.57
2023-05-03T17:54:46.196Z,10.30
2023-05-03T17:57:13.368Z,9.95
2023-05-03T17:59:40.823Z,9.82
2023-05-03T18:02:08.245Z,8.48
2023-05-03T18:04:35.585Z,7.95
2023-05-03T18:07:03.103Z,8.27
2023-05-03T18:09:32.895Z,8.13
2023-05-03T18:12:01.534Z,8.20
2023-05-03T18:14:29.004Z,8.07
2023-05-03T18:16:56.173Z,8.15
2023-05-03T18:19:23.919Z,8.73
2023-05-03T18:21:51.418Z,9.77
2023-05-03T18:24:18.758Z,8.10
2023-05-03T18:26:47.112Z,9.15
2023-05-03T18:29:14.765Z,8.70
2023-05-03T18:31:42.055Z,9.40
2023-05-03T18:34:09.199Z,8.65
2023-05-03T18:36:36.854Z,8.23
2023-05-03T18:39:04.817Z,8.25
2023-05-03T18:41:32.214Z,8.32
2023-05-03T18:43:59.464Z,8.98
2023-05-03T18:46:27.020Z,8.63
2023-05-03T18:48:54.319Z,9.25
2023-05-03T18:51:21.623Z,8.00
2023-05-03T18:53:49.836Z,8.88
2023-05-03T18:56:17.041Z,8.02
2023-05-03T18:58:46.655Z,8.50
2023-05-03T19:01:14.017Z,9.35
2023-05-03T19:03:41.361Z,8.45
2023-05-03T19:06:08.664Z,7.55
2023-05-03T19:08:35.897Z,8.48
2023-05-03T19:11:10.967Z,8.00
2023-05-03T19:13:38.314Z,8.60
2023-05-03T19:16:05.966Z,7.75
2023-05-03T19:18:33.267Z,7.95
2023-05-03T19:21:01.389Z,9.18
2023-05-03T19:23:28.583Z,8.02
2023-05-03T19:25:56.636Z,9.18
2023-05-03T19:28:23.823Z,9.57
2023-05-03T19:30:54.331Z,9.70
2023-05-03T19:33:21.905Z,8.20
2023-05-03T19:35:49.126Z,8.70
2023-05-03T19:38:16.315Z,9.82
2023-05-03T19:40:56.665Z,11.82
2023-05-03T19:43:24.237Z,9.93
2023-05-03T19:45:51.833Z,9.82
2023-05-03T19:48:19.091Z,9.30
2023-05-03T19:50:47.500Z,10.75
2023-05-03T19:53:14.794Z,10.05
2023-05-03T19:55:42.091Z,8.90
2023-05-03T19:58:09.214Z,9.63
2023-05-03T20:00:36.374Z,10.43
2023-05-03T20:03:03.601Z,9.57
2023-05-03T20:05:30.955Z,9.20
2023-05-03T20:07:58.193Z,11.02
2023-05-03T20:10:25.547Z,9.65
2023-05-03T20:12:52.795Z,9.82
2023-05-03T20:15:20.091Z,9.63
2023-05-03T20:17:47.356Z,9.38
2023-05-03T20:20:16.314Z,10.75
2023-05-03T20:22:43.566Z,11.15
2023-05-03T20:25:10.857Z,11.40
2023-05-03T20:27:38.041Z,9.93
2023-05-03T20:30:06.563Z,11.38
2023-05-03T20:32:36.368Z,14.35
2023-05-03T20:35:04.988Z,12.88
2023-05-03T20:37:32.687Z,12.18
2023-05-03T20:40:00.256Z,13.93
2023-05-03T20:42:27.469Z,15.23
2023-05-03T20:44:54.690Z,14.23
2023-05-03T20:47:22.636Z,13.15
2023-05-03T20:49:49.876Z,11.18
2023-05-03T20:52:17.384Z,11.30
2023-05-03T20:54:45.653Z,11.20
2023-05-03T20:57:15.828Z,11.15
2023-05-03T20:59:45.918Z,10.90
